createdAt,value
2019-05-13T00:01:54.005Z,99.90
2019-05-13T00:04:24.165Z,99.90
2019-05-13T00:06:55.127Z,99.90
2019-05-13T00:09:24.485Z,99.90
2019-05-13T00:11:53.993Z,99.90
2019-05-13T00:14:23.948Z,99.90
2019-05-13T00:16:53.688Z,99.90
2019-05-13T00:19:23.348Z,99.90
2019-05-13T00:21:54.485Z,99.90
2019-05-13T00:24:24.243Z,99.90
2019-05-13T00:26:53.393Z,99.90
2019-05-13T00:29:23.484Z,99.90
2019-05-13T00:31:54.020Z,99.90
2019-05-13T00:34:24.400Z,99.90
2019-05-13T00:37:07.264Z,99.90
2019-05-13T00:39:24.657Z,99.90
2019-05-13T00:41:53.891Z,99.90
2019-05-13T00:44:24.438Z,99.90
2019-05-13T00:46:53.847Z,99.90
2019-05-13T00:49:23.868Z,99.90
2019-05-13T00:51:53.502Z,99.90
2019-05-13T00:54:23.642Z,99.90
2019-05-13T00:56:54.771Z,99.90
2019-05-13T00:59:24.223Z,99.90
2019-05-13T01:01:53.477Z,99.90
2019-05-13T01:04:23.256Z,99.90
2019-05-13T01:06:53.834Z,99.90
2019-05-13T01:09:23.744Z,99.90
2019-05-13T01:11:53.725Z,99.90
2019-05-13T01:14:23.540Z,99.90
2019-05-13T01:16:54.424Z,99.90
2019-05-13T01:19:23.794Z,99.90
2019-05-13T01:21:54.007Z,99.80
2019-05-13T01:24:24.369Z,99.40
2019-05-13T01:26:54.176Z,99.70
2019-05-13T01:29:23.860Z,99.80
2019-05-13T01:31:53.854Z,99.70
2019-05-13T01:34:23.590Z,99.60
2019-05-13T01:36:53.596Z,99.70
2019-05-13T01:39:24.277Z,99.70
2019-05-13T01:41:54.121Z,99.50
2019-05-13T01:44:24.396Z,99.60
2019-05-13T01:46:53.837Z,99.60
2019-05-13T01:49:24.113Z,99.60
2019-05-13T01:51:54.131Z,99.40
2019-05-13T01:54:24.706Z,99.00
2019-05-13T01:56:53.831Z,98.90
2019-05-13T01:59:24.046Z,99.00
2019-05-13T02:01:54.074Z,99.10
2019-05-13T02:04:24.446Z,99.30
2019-05-13T02:06:54.355Z,99.50
2019-05-13T02:09:24.436Z,99.70
2019-05-13T02:11:53.941Z,99.50
2019-05-13T02:14:23.692Z,99.50
2019-05-13T02:16:53.598Z,99.30
2019-05-13T02:19:24.488Z,99.40
2019-05-13T02:21:54.346Z,99.60
2019-05-13T02:24:23.753Z,99.50
2019-05-13T02:26:54.367Z,99.60
2019-05-13T02:29:24.523Z,99.80
2019-05-13T02:31:56.358Z,99.80
2019-05-13T02:34:24.487Z,99.80
2019-05-13T02:36:53.599Z,99.90
2019-05-13T02:39:22.607Z,99.90
2019-05-13T02:41:52.664Z,99.90
2019-05-13T02:44:22.737Z,99.90
2019-05-13T02:46:52.533Z,99.90
2019-05-13T02:49:23.067Z,99.90
2019-05-13T02:51:54.759Z,99.90
2019-05-13T02:54:23.215Z,99.90
2019-05-13T02:56:52.812Z,99.90
2019-05-13T02:59:22.866Z,99.90
2019-05-13T03:01:53.271Z,99.90
2019-05-13T03:04:23.479Z,99.90
2019-05-13T03:06:52.758Z,99.90
2019-05-13T03:09:22.976Z,99.90
2019-05-13T03:11:53.526Z,99.90
2019-05-13T03:14:24.140Z,99.90
2019-05-13T03:17:15.402Z,99.90
2019-05-13T03:19:44.356Z,99.90
2019-05-13T03:22:13.677Z,99.90
2019-05-13T03:24:43.209Z,99.90
2019-05-13T03:27:12.947Z,99.90
2019-05-13T03:29:43.186Z,99.90
2019-05-13T03:32:16.255Z,99.90
2019-05-13T03:34:45.333Z,99.90
2019-05-13T03:37:15.857Z,99.90
2019-05-13T03:39:46.031Z,99.90
2019-05-13T03:42:15.091Z,99.90
2019-05-13T03:44:44.987Z,99.90
2019-05-13T03:47:14.222Z,99.90
2019-05-13T03:49:44.388Z,99.90
2019-05-13T03:52:13.719Z,99.90
2019-05-13T03:54:43.700Z,99.90
2019-05-13T03:57:12.990Z,99.90
2019-05-13T03:59:43.688Z,99.90
2019-05-13T04:02:13.131Z,99.90
2019-05-13T04:04:42.521Z,99.90
2019-05-13T04:07:13.093Z,99.90
2019-05-13T04:09:42.754Z,99.90
2019-05-13T04:12:13.510Z,99.90
2019-05-13T04:14:42.709Z,99.90
2019-05-13T04:17:12.542Z,99.90
2019-05-13T04:19:42.427Z,99.90
2019-05-13T04:22:12.926Z,99.90
2019-05-13T04:24:42.868Z,99.90
2019-05-13T04:27:13.259Z,99.90
2019-05-13T04:29:43.458Z,99.90
2019-05-13T04:32:13.233Z,99.90
2019-05-13T04:34:42.667Z,99.90
2019-05-13T04:37:13.234Z,99.90
2019-05-13T04:39:51.230Z,99.90
2019-05-13T04:42:13.566Z,99.90
2019-05-13T04:44:43.038Z,99.90
2019-05-13T04:47:12.730Z,99.90
2019-05-13T04:49:42.998Z,99.90
2019-05-13T04:52:13.354Z,99.90
2019-05-13T04:54:43.586Z,99.90
2019-05-13T04:57:13.092Z,99.90
2019-05-13T04:59:44.560Z,99.90
2019-05-13T05:02:49.752Z,99.90
2019-05-13T05:05:46.984Z,99.90
2019-05-13T05:09:05.531Z,99.90
2019-05-13T05:12:02.117Z,99.90
2019-05-13T05:14:59.286Z,99.90
2019-05-13T05:17:56.387Z,99.90
2019-05-13T05:20:37.266Z,99.90
2019-05-13T05:23:32.038Z,99.90
2019-05-13T05:26:31.164Z,99.90
2019-05-13T05:29:15.389Z,99.90
2019-05-13T05:32:01.937Z,99.90
2019-05-13T05:35:01.508Z,99.90
2019-05-13T05:38:07.724Z,99.90
2019-05-13T05:40:38.534Z,99.90
2019-05-13T05:43:11.493Z,99.90
2019-05-13T05:45:41.288Z,99.30
2019-05-13T05:48:16.242Z,98.70
2019-05-13T05:50:47.335Z,98.40
2019-05-13T05:53:17.987Z,98.10
2019-05-13T05:55:51.788Z,96.20
2019-05-13T05:58:23.104Z,96.20
2019-05-13T06:00:55.879Z,95.40
2019-05-13T06:03:27.082Z,94.70
2019-05-13T06:05:56.518Z,95.60
2019-05-13T06:08:25.529Z,93.10
2019-05-13T06:10:54.596Z,92.70
2019-05-13T06:13:23.637Z,92.40
2019-05-13T06:15:52.634Z,93.40
2019-05-13T06:18:22.335Z,91.80
2019-05-13T06:20:51.466Z,90.50
2019-05-13T06:23:22.209Z,89.40
2019-05-13T06:25:52.631Z,89.20
2019-05-13T06:28:21.933Z,90.30
2019-05-13T06:30:52.023Z,85.60
2019-05-13T06:33:21.369Z,84.20
2019-05-13T06:35:52.094Z,83.90
2019-05-13T06:38:22.503Z,85.00
2019-05-13T06:41:00.483Z,82.20
2019-05-13T06:43:22.598Z,79.50
2019-05-13T06:45:51.611Z,80.60
2019-05-13T06:48:22.914Z,78.20
2019-05-13T06:50:52.146Z,75.40
2019-05-13T06:53:21.881Z,77.10
2019-05-13T06:55:52.289Z,75.60
2019-05-13T06:58:22.350Z,75.00
2019-05-13T07:00:51.739Z,73.10
2019-05-13T07:03:21.946Z,75.20
2019-05-13T07:05:52.453Z,72.20
2019-05-13T07:08:22.230Z,73.60
2019-05-13T07:10:51.726Z,70.70
2019-05-13T07:13:21.787Z,68.40
2019-05-13T07:15:52.195Z,68.20
2019-05-13T07:18:21.891Z,68.90
2019-05-13T07:20:53.105Z,70.10
2019-05-13T07:23:22.588Z,67.70
2019-05-13T07:25:52.661Z,65.60
2019-05-13T07:28:22.112Z,65.90
2019-05-13T07:30:51.693Z,63.50
2019-05-13T07:33:21.481Z,65.10
2019-05-13T07:35:58.012Z,65.30
2019-05-13T07:38:23.612Z,65.50
2019-05-13T07:41:01.679Z,64.60
2019-05-13T07:43:32.068Z,65.70
2019-05-13T07:46:02.264Z,60.40
2019-05-13T07:48:32.068Z,60.80
2019-05-13T07:51:04.292Z,60.80
2019-05-13T07:53:34.526Z,63.00
2019-05-13T07:56:03.637Z,58.70
2019-05-13T07:58:37.242Z,61.00
2019-05-13T08:01:03.628Z,58.60
2019-05-13T08:03:32.582Z,56.20
2019-05-13T08:06:02.165Z,55.40
2019-05-13T08:08:32.383Z,57.60
2019-05-13T08:11:01.741Z,52.60
2019-05-13T08:13:31.584Z,55.00
2019-05-13T08:16:01.911Z,58.20
2019-05-13T08:18:31.930Z,54.00
2019-05-13T08:21:02.072Z,54.90
2019-05-13T08:23:32.387Z,55.30
2019-05-13T08:26:02.386Z,54.70
2019-05-13T08:28:32.410Z,52.30
2019-05-13T08:31:02.204Z,53.50
2019-05-13T08:33:32.222Z,56.60
2019-05-13T08:36:01.824Z,53.00
2019-05-13T08:38:31.858Z,50.60
2019-05-13T08:41:02.112Z,53.10
2019-05-13T08:43:31.810Z,49.20
2019-05-13T08:46:02.051Z,47.50
2019-05-13T08:48:32.343Z,48.20
2019-05-13T08:51:03.061Z,49.00
2019-05-13T08:53:32.762Z,50.70
2019-05-13T08:56:02.044Z,47.40
2019-05-13T08:58:31.996Z,46.00
2019-05-13T09:01:02.167Z,45.40
2019-05-13T09:03:32.606Z,47.90
2019-05-13T09:06:02.998Z,46.90
2019-05-13T09:08:32.257Z,46.10
2019-05-13T09:11:01.719Z,46.30
2019-05-13T09:13:33.014Z,43.70
2019-05-13T09:16:02.550Z,47.00
2019-05-13T09:18:32.307Z,43.00
2019-05-13T09:21:02.565Z,44.70
2019-05-13T09:23:31.931Z,47.10
2019-05-13T09:26:02.521Z,44.60
2019-05-13T09:28:32.604Z,45.50
2019-05-13T09:31:02.153Z,42.00
2019-05-13T09:33:32.602Z,41.60
2019-05-13T09:36:02.378Z,43.20
2019-05-13T09:38:32.611Z,43.80
2019-05-13T09:41:04.112Z,41.90
2019-05-13T09:43:33.301Z,41.50
2019-05-13T09:46:02.565Z,45.10
2019-05-13T09:48:32.108Z,40.10
2019-05-13T09:51:02.467Z,43.70
2019-05-13T09:53:32.606Z,42.70
2019-05-13T09:56:02.467Z,40.70
2019-05-13T09:58:33.058Z,38.20
2019-05-13T10:01:02.592Z,39.40
2019-05-13T10:03:33.092Z,42.00
2019-05-13T10:06:02.789Z,41.50
2019-05-13T10:08:32.770Z,43.40
2019-05-13T10:11:02.173Z,41.60
2019-05-13T10:13:31.813Z,41.80
2019-05-13T10:16:01.163Z,40.70
2019-05-13T10:18:32.722Z,41.10
2019-05-13T10:21:02.340Z,42.50
2019-05-13T10:23:32.915Z,44.00
2019-05-13T10:26:04.435Z,44.20
2019-05-13T10:28:34.179Z,44.30
2019-05-13T10:31:03.317Z,43.40
2019-05-13T10:33:32.518Z,42.10
2019-05-13T10:36:03.487Z,42.90
2019-05-13T10:38:33.022Z,43.00
2019-05-13T10:41:03.179Z,42.90
2019-05-13T10:43:33.140Z,44.50
2019-05-13T10:46:03.011Z,44.80
2019-05-13T10:48:32.209Z,41.90
2019-05-13T10:51:02.187Z,41.90
2019-05-13T10:53:32.254Z,41.70
2019-05-13T10:56:03.220Z,43.60
2019-05-13T10:58:32.494Z,41.40
2019-05-13T11:01:02.839Z,41.40
2019-05-13T11:03:32.938Z,41.80
2019-05-13T11:06:02.352Z,44.50
2019-05-13T11:08:33.140Z,43.70
2019-05-13T11:11:03.076Z,43.00
2019-05-13T11:13:49.626Z,42.00
2019-05-13T11:16:03.110Z,42.40
2019-05-13T11:18:32.733Z,41.50
2019-05-13T11:21:02.689Z,41.10
2019-05-13T11:23:32.388Z,40.10
2019-05-13T11:26:03.098Z,41.20
2019-05-13T11:28:33.058Z,41.60
2019-05-13T11:31:03.268Z,42.50
2019-05-13T11:33:32.633Z,41.60
2019-05-13T11:36:03.208Z,41.90
2019-05-13T11:41:03.578Z,43.70
2019-05-13T11:43:34.025Z,44.80
2019-05-13T11:46:03.225Z,44.10
2019-05-13T11:48:32.697Z,42.40
2019-05-13T11:51:03.801Z,41.60
2019-05-13T11:53:34.443Z,42.10
2019-05-13T11:56:03.849Z,40.90
2019-05-13T11:58:33.077Z,41.70
2019-05-13T12:01:03.000Z,41.30
2019-05-13T12:03:32.808Z,42.10
2019-05-13T12:06:02.537Z,41.00
2019-05-13T12:08:33.942Z,41.70
2019-05-13T12:11:06.053Z,41.90
2019-05-13T12:13:34.313Z,43.20
2019-05-13T12:16:03.973Z,44.00
2019-05-13T12:18:32.961Z,44.70
2019-05-13T12:21:03.315Z,43.10
2019-05-13T12:23:32.823Z,42.50
2019-05-13T12:26:04.024Z,44.00
2019-05-13T12:28:32.955Z,44.70
2019-05-13T12:31:03.241Z,44.80
2019-05-13T12:33:32.943Z,43.70
2019-05-13T12:36:02.423Z,45.80
2019-05-13T12:38:33.093Z,43.90
2019-05-13T12:41:05.096Z,42.70
2019-05-13T12:43:33.708Z,41.30
2019-05-13T12:46:02.863Z,42.50
2019-05-13T12:48:31.954Z,42.00
2019-05-13T12:51:02.972Z,44.10
2019-05-13T12:53:32.325Z,44.00
2019-05-13T12:56:03.311Z,43.50
2019-05-13T12:58:33.896Z,42.80
2019-05-13T13:01:03.414Z,42.00
2019-05-13T13:03:32.559Z,42.30
2019-05-13T13:06:22.584Z,41.40
2019-05-13T13:08:42.985Z,41.00
2019-05-13T13:11:03.872Z,41.60
2019-05-13T13:13:57.436Z,41.40
2019-05-13T13:16:04.405Z,42.10
2019-05-13T13:18:33.526Z,42.00
2019-05-13T13:21:07.307Z,43.30
2019-05-13T13:23:34.028Z,42.30
2019-05-13T13:26:03.667Z,42.80
2019-05-13T13:28:34.181Z,42.00
2019-05-13T13:31:04.472Z,41.30
2019-05-13T13:33:34.477Z,40.90
2019-05-13T13:36:05.256Z,42.40
2019-05-13T13:38:34.482Z,42.20
2019-05-13T13:41:04.319Z,40.60
2019-05-13T13:43:36.981Z,41.80
2019-05-13T13:46:08.564Z,39.40
2019-05-13T13:48:35.680Z,39.10
2019-05-13T13:51:05.321Z,40.70
2019-05-13T13:53:34.650Z,39.00
2019-05-13T13:56:03.622Z,38.50
2019-05-13T13:58:32.936Z,40.20
2019-05-13T14:01:11.754Z,39.60
2019-05-13T14:03:34.110Z,37.50
2019-05-13T14:06:06.167Z,39.60
2019-05-13T14:07:02.672Z,43.00
2019-05-13T14:08:34.634Z,38.90
2019-05-13T14:11:03.702Z,40.20
2019-05-13T14:13:32.655Z,40.90
2019-05-13T14:16:02.084Z,40.60
2019-05-13T14:18:31.840Z,39.30
2019-05-13T14:21:03.441Z,37.70
2019-05-13T14:23:31.898Z,37.90
2019-05-13T14:26:01.479Z,37.20
2019-05-13T14:28:32.815Z,38.90
2019-05-13T14:31:01.907Z,38.60
2019-05-13T14:33:34.799Z,38.50
2019-05-13T14:36:02.111Z,38.30
2019-05-13T14:38:32.667Z,37.80
2019-05-13T14:41:03.471Z,36.10
2019-05-13T14:43:32.725Z,37.50
2019-05-13T14:46:02.424Z,37.60
2019-05-13T14:48:34.685Z,38.20
2019-05-13T14:51:03.913Z,36.70
2019-05-13T14:53:33.023Z,37.40
2019-05-13T14:56:03.189Z,37.00
2019-05-13T14:58:32.962Z,37.60
2019-05-13T15:01:15.794Z,38.50
2019-05-13T15:03:33.258Z,37.50
2019-05-13T15:06:02.928Z,35.70
2019-05-13T15:08:32.854Z,37.20
2019-05-13T15:11:02.282Z,37.40
2019-05-13T15:13:32.006Z,36.60
2019-05-13T15:16:01.331Z,37.60
2019-05-13T15:18:32.797Z,38.50
2019-05-13T15:21:01.855Z,38.50
2019-05-13T15:23:31.791Z,39.40
2019-05-13T15:26:02.275Z,39.90
2019-05-13T15:28:31.993Z,40.20
2019-05-13T15:31:01.144Z,38.60
2019-05-13T15:33:32.665Z,38.70
2019-05-13T15:36:01.869Z,39.50
2019-05-13T15:38:32.026Z,38.90
2019-05-13T15:41:01.982Z,39.70
2019-05-13T15:43:32.138Z,39.10
2019-05-13T15:46:02.057Z,39.90
2019-05-13T15:48:31.680Z,39.60
2019-05-13T15:51:02.035Z,39.20
2019-05-13T15:53:32.147Z,39.30
2019-05-13T15:56:02.708Z,40.10
2019-05-13T15:58:39.966Z,41.10
2019-05-13T16:01:05.799Z,39.70
2019-05-13T16:03:35.523Z,41.90
2019-05-13T16:06:04.527Z,39.90
2019-05-13T16:08:33.539Z,40.90
2019-05-13T16:11:02.617Z,41.00
2019-05-13T16:13:32.020Z,41.40
2019-05-13T16:16:01.752Z,42.20
2019-05-13T16:18:31.650Z,40.90
2019-05-13T16:21:01.801Z,38.50
2019-05-13T16:23:32.309Z,38.50
2019-05-13T16:26:02.765Z,40.20
2019-05-13T16:28:32.868Z,38.20
2019-05-13T16:31:02.493Z,37.90
2019-05-13T16:33:31.725Z,39.70
2019-05-13T16:36:02.538Z,38.90
2019-05-13T16:38:32.945Z,39.70
2019-05-13T16:41:02.187Z,40.00
2019-05-13T16:43:32.091Z,39.80
2019-05-13T16:46:01.206Z,40.00
2019-05-13T16:48:32.351Z,40.20
2019-05-13T16:51:00.946Z,38.40
2019-05-13T16:53:31.493Z,36.20
2019-05-13T16:56:01.768Z,37.60
2019-05-13T16:58:32.479Z,38.20
2019-05-13T17:01:02.636Z,38.50
2019-05-13T17:03:32.106Z,37.30
2019-05-13T17:06:02.068Z,38.30
2019-05-13T17:08:31.983Z,36.10
2019-05-13T17:11:02.196Z,36.70
2019-05-13T17:13:31.674Z,36.70
2019-05-13T17:16:01.635Z,37.60
2019-05-13T17:18:32.423Z,38.40
2019-05-13T17:21:01.951Z,38.30
2019-05-13T17:23:30.949Z,35.40
2019-05-13T17:26:01.938Z,37.90
2019-05-13T17:28:33.908Z,36.60
2019-05-13T17:31:02.173Z,36.10
2019-05-13T17:33:31.938Z,36.50
2019-05-13T17:36:01.928Z,36.40
2019-05-13T17:38:32.428Z,35.40
2019-05-13T17:41:02.443Z,36.40
2019-05-13T17:43:32.213Z,36.90
2019-05-13T17:46:01.275Z,36.30
2019-05-13T17:48:35.928Z,37.00
2019-05-13T17:51:05.397Z,35.40
2019-05-13T17:53:34.505Z,35.90
2019-05-13T17:56:04.068Z,35.50
2019-05-13T17:58:33.330Z,36.90
2019-05-13T18:01:02.486Z,35.70
2019-05-13T18:03:32.276Z,37.50
2019-05-13T18:06:02.314Z,38.00
2019-05-13T18:08:32.233Z,37.40
2019-05-13T18:11:02.229Z,38.10
2019-05-13T18:13:31.988Z,38.40
2019-05-13T18:16:02.404Z,38.50
2019-05-13T18:18:43.093Z,39.10
2019-05-13T18:21:02.837Z,39.60
2019-05-13T18:23:31.874Z,38.90
2019-05-13T18:26:01.931Z,40.50
2019-05-13T18:28:31.680Z,40.50
2019-05-13T18:31:01.711Z,41.50
2019-05-13T18:33:31.993Z,44.60
2019-05-13T18:36:01.939Z,43.50
2019-05-13T18:38:31.292Z,41.50
2019-05-13T18:41:01.835Z,41.80
2019-05-13T18:43:32.275Z,44.00
2019-05-13T18:46:02.157Z,47.20
2019-05-13T18:48:32.445Z,51.10
2019-05-13T18:51:01.527Z,51.70
2019-05-13T18:53:32.191Z,53.70
2019-05-13T18:56:02.085Z,54.20
2019-05-13T18:58:31.869Z,49.60
2019-05-13T19:01:01.462Z,54.20
2019-05-13T19:03:32.237Z,53.50
2019-05-13T19:06:01.499Z,55.80
2019-05-13T19:08:32.159Z,56.40
2019-05-13T19:11:01.775Z,58.10
2019-05-13T19:13:32.491Z,57.80
2019-05-13T19:16:02.455Z,57.20
2019-05-13T19:18:32.142Z,58.10
2019-05-13T19:21:01.922Z,59.30
2019-05-13T19:23:31.577Z,59.40
2019-05-13T19:26:01.968Z,60.20
2019-05-13T19:28:31.872Z,60.50
2019-05-13T19:31:02.307Z,59.30
2019-05-13T19:33:31.538Z,60.20
2019-05-13T19:36:01.389Z,60.20
2019-05-13T19:38:31.914Z,62.40
2019-05-13T19:41:02.044Z,62.60
2019-05-13T19:43:32.155Z,63.10
2019-05-13T19:46:01.704Z,63.30
2019-05-13T19:48:32.587Z,63.00
2019-05-13T19:51:02.178Z,65.20
2019-05-13T19:53:31.924Z,65.10
2019-05-13T19:56:01.548Z,62.00
2019-05-13T19:58:32.286Z,64.20
2019-05-13T20:01:01.878Z,65.00
2019-05-13T20:03:31.747Z,67.50
2019-05-13T20:06:02.144Z,66.50
2019-05-13T20:08:32.072Z,66.00
2019-05-13T20:11:02.043Z,65.40
2019-05-13T20:13:31.598Z,67.20
2019-05-13T20:16:01.426Z,58.90
2019-05-13T20:18:32.013Z,60.60
2019-05-13T20:21:01.423Z,63.50
2019-05-13T20:23:31.992Z,66.90
2019-05-13T20:26:01.278Z,65.40
2019-05-13T20:28:31.694Z,62.10
2019-05-13T20:31:01.927Z,57.10
2019-05-13T20:33:31.982Z,56.30
2019-05-13T20:36:01.711Z,59.20
2019-05-13T20:38:31.626Z,61.30
2019-05-13T20:41:01.452Z,64.60
2019-05-13T20:43:32.768Z,62.80
2019-05-13T20:46:01.981Z,63.40
2019-05-13T20:48:32.150Z,63.30
2019-05-13T20:51:02.583Z,59.40
2019-05-13T20:53:31.743Z,58.20
2019-05-13T20:56:01.795Z,59.40
2019-05-13T20:58:31.877Z,61.30
2019-05-13T21:01:02.299Z,55.80
2019-05-13T21:03:31.797Z,55.30
2019-05-13T21:06:00.884Z,54.50
2019-05-13T21:08:31.957Z,57.80
2019-05-13T21:11:02.230Z,55.70
2019-05-13T21:13:31.947Z,55.10
2019-05-13T21:16:02.290Z,53.80
2019-05-13T21:18:31.821Z,52.90
2019-05-13T21:21:01.015Z,52.70
2019-05-13T21:23:31.277Z,52.50
2019-05-13T21:26:01.740Z,52.10
2019-05-13T21:28:30.893Z,53.10
2019-05-13T21:31:01.948Z,52.00
2019-05-13T21:33:31.452Z,52.20
2019-05-13T21:36:01.697Z,51.20
2019-05-13T21:38:32.478Z,50.40
2019-05-13T21:41:01.709Z,50.90
2019-05-13T21:43:32.376Z,50.30
2019-05-13T21:46:02.094Z,51.80
2019-05-13T21:48:32.404Z,52.40
2019-05-13T21:51:01.865Z,54.80
2019-05-13T21:53:32.623Z,52.30
2019-05-13T21:56:02.434Z,55.00
2019-05-13T21:58:31.706Z,52.90
2019-05-13T22:01:01.687Z,56.10
2019-05-13T22:03:33.348Z,57.60
2019-05-13T22:06:02.112Z,56.90
2019-05-13T22:08:32.122Z,57.50
2019-05-13T22:11:01.880Z,56.90
2019-05-13T22:13:31.611Z,57.50
2019-05-13T22:16:01.757Z,58.90
2019-05-13T22:18:31.417Z,58.20
2019-05-13T22:21:01.389Z,55.30
2019-05-13T22:23:32.067Z,55.10
2019-05-13T22:26:01.827Z,54.30
2019-05-13T22:28:31.407Z,53.80
2019-05-13T22:31:01.421Z,53.50
2019-05-13T22:33:32.488Z,52.60
2019-05-13T22:36:01.902Z,52.70
2019-05-13T22:38:32.246Z,52.90
2019-05-13T22:41:01.629Z,52.50
2019-05-13T22:43:32.059Z,52.20
2019-05-13T22:46:01.558Z,55.20
2019-05-13T22:48:31.744Z,54.70
2019-05-13T22:51:01.502Z,55.80
2019-05-13T22:53:31.834Z,56.50
2019-05-13T22:56:01.198Z,57.80
2019-05-13T22:58:32.083Z,59.10
2019-05-13T23:01:02.561Z,57.60
2019-05-13T23:03:32.330Z,55.70
2019-05-13T23:06:01.766Z,54.70
2019-05-13T23:08:32.381Z,51.80
2019-05-13T23:11:02.173Z,51.10
2019-05-13T23:13:31.465Z,50.40
2019-05-13T23:16:02.408Z,50.90
2019-05-13T23:18:31.785Z,50.40
2019-05-13T23:21:02.319Z,50.40
2019-05-13T23:23:31.682Z,50.50
2019-05-13T23:26:00.817Z,51.10
2019-05-13T23:28:32.080Z,51.50
2019-05-13T23:31:01.726Z,51.10
2019-05-13T23:33:31.466Z,50.80
2019-05-13T23:36:01.495Z,51.60
2019-05-13T23:38:32.041Z,53.30
2019-05-13T23:41:02.097Z,53.30
2019-05-13T23:43:31.462Z,53.00
2019-05-13T23:46:01.203Z,51.80
2019-05-13T23:48:32.103Z,55.50
2019-05-13T23:51:01.452Z,52.50
2019-05-13T23:53:31.482Z,55.50
2019-05-13T23:56:01.938Z,57.40
2019-05-13T23:58:32.089Z,57.10
